THUNDERSTORM

Not for real navigation. The accuracy of this data is not assured See disclaimer for more information



ICAO NAME COUNTRY WIND Kt GUST Kt VIS m TEMP/DEW C BARO METAR
KJST JOHNSTOWN-CAMBRIA CO AIRPORT PA United States 10 0 400 1/1 30.01 KJST 191020Z AUTO 27010KT 0.25SM FG VV002 01/01 A3001 RMK AO2 T00060006 TS
KRHI RHINELANDER-ONEIDA CO AIRPORT WI United States 8 0 800 -1/-1 29.86 KRHI 191008Z AUTO 22008KT 0.5SM FZFG VV002 M01/M01 A2986 RMK AO2 T10061006 TS
KEGI Duke Field / Eglin Auxiliary FL United States 0 0 1200 15/15 30.01 KEGI 191028Z AUTO 00000KT 0.75SM BR VV002 15/15 A3001 RMK AO2 RVRNO TS $
PAEG EAGLE AIRPORT AK United States 0 0 1600 -30/-34 29.32 PAEG 190953Z AUTO 00000KT 1 0.5SM -SN OVC026 M30/M34 A2932 RMK AO2 SLP967 P0000 T13001339 TS
KQFX 1 0 1600 -2/-6 30.11 KQFX 191020Z AUTO 13001KT 1600 HZ SCT120 M02/M06 A3011 RMK A02 TS

Show more